Time;durP1;ratioP1;P1;durP2;ratioP2;P2;SDS_P1;SDS_P2;PMS_P1;PMS_P2;Temp;Humidity;BMP_temperature;BMP_pressure;BME280_temperature;BME280_humidity;BME280_pressure;Samples;Min_cycle;Max_cycle;Signal;HPM_P1;HPM_P2
2022/04/16 00:00:41;;;;;;;33.10;20.02;;;7.30;99.90;;;;;;5084428;28;20131;-66
2022/04/16 00:03:27;;;;;;;30.88;18.05;;;7.30;99.90;;;;;;5086578;28;20024;-66
2022/04/16 00:06:13;;;;;;;33.10;19.63;;;7.20;99.90;;;;;;5091844;28;20043;-66
2022/04/16 00:09:00;;;;;;;34.70;19.67;;;7.30;99.90;;;;;;5095485;28;20027;-66
2022/04/16 00:11:49;;;;;;;34.10;19.40;;;7.30;99.90;;;;;;5076503;28;20032;-65
2022/04/16 00:14:36;;;;;;;34.35;19.25;;;7.30;99.90;;;;;;5083024;28;20153;-66
2022/04/16 00:17:22;;;;;;;35.65;19.83;;;7.30;99.90;;;;;;5066396;28;20324;-66
2022/04/16 00:20:11;;;;;;;33.97;20.97;;;7.30;99.90;;;;;;5075670;28;20032;-66
2022/04/16 00:22:56;;;;;;;34.92;18.75;;;7.30;99.90;;;;;;5076092;28;20115;-66
2022/04/16 00:25:43;;;;;;;35.13;19.35;;;7.20;99.90;;;;;;5065388;28;20120;-66
2022/04/16 00:28:29;;;;;;;31.73;18.52;;;7.30;99.90;;;;;;5079180;28;20043;-65
2022/04/16 00:31:16;;;;;;;34.28;18.42;;;7.20;99.90;;;;;;5065328;28;20093;-66
2022/04/16 00:34:02;;;;;;;34.10;20.20;;;7.20;99.90;;;;;;5062423;28;20107;-66
2022/04/16 00:36:48;;;;;;;34.83;19.50;;;7.30;99.90;;;;;;5077979;28;20071;-66
2022/04/16 00:39:34;;;;;;;35.93;21.20;;;7.20;99.90;;;;;;5077464;28;20187;-65
2022/04/16 00:42:20;;;;;;;35.95;19.23;;;7.20;99.90;;;;;;5057077;28;20290;-65
2022/04/16 00:45:07;;;;;;;32.60;19.42;;;7.20;99.90;;;;;;5066028;28;20035;-65
2022/04/16 00:47:53;;;;;;;;;;;7.20;99.90;;;;;;5057553;28;20036;-65
2022/04/16 00:50:40;;;;;;;36.22;19.42;;;7.20;99.90;;;;;;5071745;28;19957;-65
2022/04/16 00:53:29;;;;;;;37.53;20.90;;;7.20;99.90;;;;;;5074055;28;20247;-65
2022/04/16 00:56:15;;;;;;;36.88;20.45;;;7.20;99.90;;;;;;5064961;28;20032;-65
2022/04/16 00:59:02;;;;;;;34.92;20.83;;;7.20;99.90;;;;;;5067824;28;20087;-65
2022/04/16 01:01:47;;;;;;;45.65;19.40;;;7.10;99.90;;;;;;5077903;28;20447;-65
2022/04/16 01:04:33;;;;;;;38.67;22.00;;;7.00;99.90;;;;;;5074672;28;20024;-65
2022/04/16 01:07:23;;;;;;;38.65;22.08;;;7.00;99.90;;;;;;5066887;28;20032;-65
2022/04/16 01:10:09;;;;;;;42.53;23.00;;;7.00;99.90;;;;;;5063272;28;20233;-65
2022/04/16 01:12:58;;;;;;;35.47;19.80;;;7.00;99.90;;;;;;5057437;28;20040;-65
2022/04/16 01:15:44;;;;;;;38.95;21.23;;;7.00;99.90;;;;;;5073506;28;20062;-65
2022/04/16 01:18:31;;;;;;;36.35;20.17;;;7.00;99.90;;;;;;5054465;28;20188;-66
2022/04/16 01:21:18;;;;;;;33.83;19.98;;;7.00;99.90;;;;;;5071141;28;20062;-65
2022/04/16 01:24:05;;;;;;;36.67;20.17;;;7.10;99.90;;;;;;5072918;28;20513;-65
2022/04/16 01:26:51;;;;;;;38.45;20.30;;;7.10;99.90;;;;;;5060333;28;20103;-65
2022/04/16 01:29:37;;;;;;;34.80;19.83;;;7.10;99.90;;;;;;5071826;28;20073;-65
2022/04/16 01:32:23;;;;;;;36.87;20.27;;;7.10;99.90;;;;;;5060888;28;20102;-65
2022/04/16 01:35:10;;;;;;;34.50;19.30;;;7.10;99.90;;;;;;5059797;28;20024;-65
2022/04/16 01:37:56;;;;;;;;;;;7.10;99.90;;;;;;5059013;28;20275;-65
2022/04/16 01:40:43;;;;;;;37.53;19.70;;;7.00;99.90;;;;;;5062341;28;19947;-64
2022/04/16 01:43:29;;;;;;;35.47;18.37;;;7.00;99.90;;;;;;5054718;28;20029;-64
2022/04/16 01:46:15;;;;;;;32.03;18.23;;;7.00;99.90;;;;;;5066014;28;20039;-66
2022/04/16 01:49:01;;;;;;;34.70;19.63;;;7.00;99.90;;;;;;5053333;28;20129;-66
2022/04/16 01:51:48;;;;;;;32.92;18.60;;;7.10;99.90;;;;;;5068686;28;20086;-67
2022/04/16 01:54:34;;;;;;;;;;;7.10;99.90;;;;;;5072451;28;20173;-67
2022/04/16 01:57:20;;;;;;;36.10;18.92;;;7.00;99.90;;;;;;5057655;28;19934;-67
2022/04/16 02:00:08;;;;;;;42.53;20.65;;;7.00;99.90;;;;;;5072885;28;20028;-66
2022/04/16 02:02:54;;;;;;;38.58;21.15;;;7.00;99.90;;;;;;5043195;28;20070;-66
2022/04/16 02:05:40;;;;;;;37.88;19.67;;;6.90;99.90;;;;;;5052118;28;20041;-67
2022/04/16 02:08:26;;;;;;;38.42;21.10;;;6.90;99.90;;;;;;5038993;28;20545;-67
2022/04/16 02:11:12;;;;;;;42.63;21.00;;;7.00;99.90;;;;;;5041226;28;20037;-66
2022/04/16 02:13:58;;;;;;;37.63;19.95;;;7.00;99.90;;;;;;5034277;28;20604;-67
2022/04/16 02:16:44;;;;;;;42.30;24.27;;;7.00;99.90;;;;;;5045618;28;20120;-67
2022/04/16 02:19:30;;;;;;;48.00;26.02;;;7.00;99.90;;;;;;5035889;28;20036;-67
2022/04/16 02:22:16;;;;;;;41.13;22.35;;;6.90;99.90;;;;;;5049484;28;20042;-67
2022/04/16 02:25:08;;;;;;;49.28;26.52;;;6.90;99.90;;;;;;5044812;28;20020;-67
2022/04/16 02:27:54;;;;;;;50.92;25.67;;;6.90;99.90;;;;;;5047790;28;20027;-67
2022/04/16 02:30:40;;;;;;;52.70;27.53;;;6.90;99.90;;;;;;5050255;28;20036;-68
2022/04/16 02:33:26;;;;;;;49.00;26.48;;;6.90;99.90;;;;;;5048342;28;20656;-67
2022/04/16 02:36:12;;;;;;;56.97;29.15;;;6.90;99.90;;;;;;5047516;28;20043;-67
2022/04/16 02:38:59;;;;;;;56.28;28.95;;;6.90;99.90;;;;;;5037802;28;20091;-66
2022/04/16 02:41:45;;;;;;;50.80;27.13;;;7.00;99.90;;;;;;5040745;28;20029;-67
2022/04/16 02:47:36;;;;;;;48.45;26.45;;;6.90;99.90;;;;;;5047451;28;20071;-68
2022/04/16 02:50:24;;;;;;;44.42;23.85;;;6.80;99.90;;;;;;5047775;28;20060;-67
2022/04/16 02:53:11;;;;;;;46.15;25.45;;;6.80;99.90;;;;;;5042098;28;20063;-69
2022/04/16 02:55:57;;;;;;;43.17;22.80;;;6.90;99.90;;;;;;5044062;28;20036;-67
2022/04/16 02:58:44;;;;;;;47.85;25.90;;;6.90;99.90;;;;;;5042296;28;20059;-67
2022/04/16 03:01:30;;;;;;;49.85;26.30;;;6.90;99.90;;;;;;5045027;28;20822;-68
2022/04/16 03:04:16;;;;;;;46.53;25.70;;;6.90;99.90;;;;;;5048680;28;20117;-67
2022/04/16 03:07:02;;;;;;;43.60;24.13;;;6.90;99.90;;;;;;5041971;28;20717;-68
2022/04/16 03:09:47;;;;;;;42.63;24.08;;;6.90;99.90;;;;;;5051709;28;20098;-67
2022/04/16 03:12:53;;;;;;;50.97;25.70;;;6.90;99.90;;;;;;5041742;28;20033;-68
2022/04/16 03:18:43;;;;;;;47.55;25.25;;;6.80;99.90;;;;;;5039301;28;20086;-67
2022/04/16 03:21:29;;;;;;;39.53;22.13;;;6.80;99.90;;;;;;5051670;28;20031;-67
2022/04/16 03:24:15;;;;;;;35.55;20.00;;;6.70;99.90;;;;;;5039568;28;20029;-67
2022/04/16 03:27:01;;;;;;;37.95;20.73;;;6.70;99.90;;;;;;5037288;28;20067;-67
2022/04/16 03:29:47;;;;;;;37.90;21.95;;;6.70;99.90;;;;;;5051442;28;20694;-68
2022/04/16 03:32:37;;;;;;;36.67;20.52;;;6.60;99.90;;;;;;5090307;28;20046;-67
2022/04/16 03:35:23;;;;;;;34.92;20.08;;;6.60;99.90;;;;;;5090823;28;20423;-66
2022/04/16 03:38:10;;;;;;;43.28;20.40;;;6.60;99.90;;;;;;5090949;28;20039;-67
2022/04/16 03:40:55;;;;;;;36.57;19.70;;;6.60;99.90;;;;;;5071203;28;20036;-67
2022/04/16 03:43:41;;;;;;;30.73;17.83;;;6.60;99.90;;;;;;5088231;28;20667;-66
2022/04/16 03:46:27;;;;;;;29.83;16.77;;;6.40;99.90;;;;;;5090322;28;20061;-66
2022/04/16 03:49:13;;;;;;;21.15;12.95;;;6.30;99.90;;;;;;5090708;28;20107;-67
2022/04/16 03:51:59;;;;;;;26.13;13.90;;;6.20;99.90;;;;;;5091155;28;20035;-67
2022/04/16 04:00:55;;;;;;;26.10;14.32;;;6.10;99.90;;;;;;5095715;28;20034;-66
2022/04/16 04:03:40;;;;;;;26.35;14.52;;;6.10;99.90;;;;;;5094339;28;20654;-68
2022/04/16 04:06:26;;;;;;;24.17;13.63;;;6.10;99.90;;;;;;5094480;28;20071;-67
2022/04/16 04:09:12;;;;;;;25.43;14.70;;;6.10;99.90;;;;;;5096050;28;20051;-66
2022/04/16 04:11:58;;;;;;;26.08;14.20;;;6.00;99.90;;;;;;5081065;28;20019;-68
2022/04/16 04:14:50;;;;;;;37.00;17.05;;;6.10;99.90;;;;;;5082884;28;20122;-70
2022/04/16 04:17:38;;;;;;;33.80;18.08;;;6.10;99.90;;;;;;5093173;28;20553;-71
2022/04/16 04:20:29;;;;;;;36.17;18.58;;;6.00;99.90;;;;;;5096176;28;20038;-70
2022/04/16 04:23:21;;;;;;;35.05;17.48;;;6.10;99.90;;;;;;5094611;28;20028;-69
2022/04/16 04:26:20;;;;;;;34.50;16.40;;;6.00;99.90;;;;;;5095294;28;20027;-70
2022/04/16 04:29:06;;;;;;;27.83;15.13;;;6.00;99.90;;;;;;5095205;28;20028;-71
2022/04/16 04:31:55;;;;;;;30.77;15.67;;;6.00;99.90;;;;;;5093122;28;20043;-69
2022/04/16 04:34:42;;;;;;;28.63;15.35;;;6.00;99.90;;;;;;5094695;28;20038;-71
2022/04/16 04:37:48;;;;;;;30.85;15.07;;;5.80;99.90;;;;;;5093986;28;20035;-70
2022/04/16 04:40:42;;;;;;;27.60;14.18;;;5.90;99.90;;;;;;5094476;28;20106;-70
2022/04/16 04:43:36;;;;;;;31.23;15.25;;;5.90;99.90;;;;;;5092863;28;20032;-70
2022/04/16 04:46:22;;;;;;;24.60;13.90;;;5.80;99.90;;;;;;5094316;28;20045;-69
2022/04/16 04:49:18;;;;;;;21.47;13.10;;;5.90;99.90;;;;;;5094520;28;20035;-70
2022/04/16 04:52:07;;;;;;;24.27;12.48;;;5.90;99.90;;;;;;5094609;28;20109;-71
2022/04/16 04:58:17;;;;;;;22.40;12.10;;;5.90;99.90;;;;;;5091695;28;20523;-71
2022/04/16 05:01:06;;;;;;;18.73;10.85;;;5.90;99.90;;;;;;5055780;28;20248;-69
2022/04/16 05:03:52;;;;;;;20.30;11.18;;;5.80;99.90;;;;;;5085211;28;20101;-70
2022/04/16 05:06:40;;;;;;;24.13;11.70;;;5.80;99.90;;;;;;5093095;28;20603;-67
2022/04/16 05:09:34;;;;;;;26.92;13.25;;;5.80;99.90;;;;;;5092849;28;20073;-67
2022/04/16 05:12:22;;;;;;;23.13;12.10;;;5.80;99.90;;;;;;5088327;28;20035;-67
2022/04/16 05:15:11;;;;;;;20.48;12.00;;;5.80;99.90;;;;;;5093348;28;20043;-69
2022/04/16 05:17:57;;;;;;;22.60;11.95;;;5.80;99.90;;;;;;5092916;28;20035;-70
2022/04/16 05:21:04;;;;;;;18.20;10.02;;;5.80;99.90;;;;;;5079700;28;20044;-72
2022/04/16 05:23:50;;;;;;;30.15;14.75;;;5.80;99.90;;;;;;5076641;28;20036;-69
2022/04/16 05:26:39;;;;;;;27.20;14.00;;;5.80;99.90;;;;;;5092425;28;20081;-72
2022/04/16 05:29:25;;;;;;;27.38;13.35;;;5.80;99.90;;;;;;5093128;28;20032;-72
2022/04/16 05:32:15;;;;;;;24.55;13.18;;;5.80;99.90;;;;;;5078397;28;20119;-73
2022/04/16 05:35:08;;;;;;;25.73;13.32;;;5.90;99.90;;;;;;5080960;28;20027;-72
2022/04/16 05:37:55;;;;;;;27.92;14.02;;;5.80;99.90;;;;;;5072185;28;20031;-71
2022/04/16 05:40:41;;;;;;;;;;;5.80;99.90;;;;;;5091610;28;20019;-69
2022/04/16 05:43:27;;;;;;;25.15;13.90;;;5.70;99.90;;;;;;5078746;28;20169;-70
2022/04/16 05:46:15;;;;;;;31.70;16.23;;;5.80;99.90;;;;;;5080880;28;20024;-70
2022/04/16 05:49:11;;;;;;;25.30;13.48;;;5.60;99.90;;;;;;5079507;28;20039;-71
2022/04/16 05:52:02;;;;;;;21.27;12.32;;;5.50;99.90;;;;;;5093983;27;20035;-71
2022/04/16 05:54:50;;;;;;;24.80;12.73;;;5.60;99.90;;;;;;5090867;28;20116;-71
2022/04/16 05:57:45;;;;;;;23.58;13.38;;;5.60;99.90;;;;;;5094269;28;20888;-71
2022/04/16 06:00:36;;;;;;;27.45;12.20;;;5.70;99.90;;;;;;5090345;28;20032;-72
2022/04/16 06:03:26;;;;;;;25.48;12.75;;;5.70;99.90;;;;;;5091035;28;20030;-71
2022/04/16 06:06:17;;;;;;;25.33;11.95;;;5.60;99.90;;;;;;5093149;28;20046;-72
2022/04/16 06:09:07;;;;;;;25.00;12.25;;;5.50;99.90;;;;;;5093285;28;20139;-72
2022/04/16 06:12:01;;;;;;;23.17;11.60;;;5.50;99.90;;;;;;5093663;28;20118;-71
2022/04/16 06:14:51;;;;;;;21.27;10.32;;;5.50;99.90;;;;;;5087505;28;20757;-70
2022/04/16 06:17:39;;;;;;;25.00;10.75;;;5.50;99.90;;;;;;5089196;28;20027;-70
2022/04/16 06:20:48;;;;;;;25.58;11.68;;;5.50;99.90;;;;;;5081545;28;20030;-71
2022/04/16 06:23:38;;;;;;;20.30;10.77;;;5.50;99.90;;;;;;5071358;28;20434;-71
2022/04/16 06:26:27;;;;;;;28.52;12.88;;;5.50;99.90;;;;;;5089010;28;20028;-70
2022/04/16 06:29:18;;;;;;;26.83;11.75;;;5.40;99.90;;;;;;5091890;27;20035;-70
2022/04/16 06:32:07;;;;;;;28.35;10.98;;;5.50;99.90;;;;;;5082210;28;20071;-70
2022/04/16 06:35:04;;;;;;;20.10;10.60;;;5.50;99.90;;;;;;5088251;28;20531;-70
2022/04/16 06:37:52;;;;;;;24.17;10.75;;;5.40;99.90;;;;;;5089559;28;20519;-71
2022/04/16 06:40:43;;;;;;;23.63;11.30;;;5.50;99.90;;;;;;5091628;28;20115;-71
2022/04/16 06:43:40;;;;;;;22.58;11.18;;;5.40;99.90;;;;;;5091478;28;20034;-70
2022/04/16 06:46:26;;;;;;;20.10;9.67;;;5.50;99.90;;;;;;5092961;28;20032;-70
2022/04/16 06:49:17;;;;;;;21.47;10.37;;;5.50;99.90;;;;;;5092523;28;20061;-71
2022/04/16 06:52:09;;;;;;;20.02;9.68;;;5.50;99.90;;;;;;5094517;28;20261;-72
2022/04/16 06:55:01;;;;;;;17.90;9.13;;;5.60;99.90;;;;;;5092609;28;20035;-69
2022/04/16 06:57:50;;;;;;;17.58;7.93;;;5.80;99.90;;;;;;5091694;27;20033;-70
2022/04/16 07:00:42;;;;;;;24.08;9.50;;;6.10;99.90;;;;;;5085487;28;20550;-69
2022/04/16 07:03:32;;;;;;;15.80;8.50;;;6.10;99.90;;;;;;5078657;28;20024;-70
2022/04/16 07:06:21;;;;;;;14.18;7.50;;;6.00;99.90;;;;;;5083519;28;20701;-72
2022/04/16 07:09:15;;;;;;;16.92;8.73;;;6.20;99.90;;;;;;5088866;28;20092;-70
2022/04/16 07:12:03;;;;;;;12.25;6.45;;;6.10;99.90;;;;;;5092637;28;20023;-72
2022/04/16 07:14:57;;;;;;;18.52;8.65;;;6.20;99.90;;;;;;5088470;28;20716;-71
2022/04/16 07:17:46;;;;;;;17.08;8.30;;;5.90;99.90;;;;;;5080617;28;20034;-72
2022/04/16 07:20:34;;;;;;;14.50;7.97;;;5.90;99.90;;;;;;5092449;28;20111;-66
2022/04/16 07:23:20;;;;;;;29.55;12.82;;;5.90;99.90;;;;;;5086333;28;20032;-67
2022/04/16 07:26:06;;;;;;;19.50;9.27;;;5.90;99.90;;;;;;5084461;28;20034;-70
2022/04/16 07:28:53;;;;;;;23.48;12.18;;;6.00;99.90;;;;;;5094263;28;20039;-69
2022/04/16 07:31:42;;;;;;;20.70;9.13;;;6.40;99.90;;;;;;5096482;27;20534;-70
2022/04/16 07:34:30;;;;;;;17.33;8.32;;;6.70;99.90;;;;;;5091551;27;20031;-69
2022/04/16 07:37:17;;;;;;;17.45;8.57;;;6.70;99.90;;;;;;5091518;28;20066;-69
2022/04/16 07:40:03;;;;;;;16.75;8.05;;;6.70;99.90;;;;;;5092911;27;20133;-70
2022/04/16 07:42:49;;;;;;;16.65;7.85;;;6.50;99.90;;;;;;5094624;27;20715;-68
2022/04/16 07:45:35;;;;;;;19.57;8.17;;;6.30;99.90;;;;;;5095848;28;20229;-69
2022/04/16 07:48:21;;;;;;;14.10;7.15;;;6.30;99.90;;;;;;5095012;28;20027;-71
2022/04/16 07:51:07;;;;;;;14.70;7.35;;;6.20;99.90;;;;;;5089279;28;20027;-71
2022/04/16 07:53:55;;;;;;;12.32;7.43;;;6.30;99.90;;;;;;5082896;28;20040;-70
2022/04/16 07:56:41;;;;;;;13.55;6.88;;;6.30;99.90;;;;;;5087760;28;20096;-71
2022/04/16 07:59:27;;;;;;;14.73;7.50;;;6.30;99.90;;;;;;5095890;28;20027;-68
2022/04/16 08:02:13;;;;;;;14.93;7.43;;;6.50;99.90;;;;;;5089001;28;20712;-69
2022/04/16 08:04:59;;;;;;;18.08;7.95;;;6.80;99.90;;;;;;5092632;28;20422;-70
2022/04/16 08:07:46;;;;;;;13.38;6.90;;;7.50;99.90;;;;;;5092613;28;20035;-70
2022/04/16 08:10:32;;;;;;;;;;;7.20;99.90;;;;;;5090055;28;20097;-68
2022/04/16 08:13:19;;;;;;;13.43;6.18;;;7.40;99.90;;;;;;5093367;28;20435;-65
2022/04/16 08:16:05;;;;;;;14.63;6.28;;;8.30;99.90;;;;;;5088985;28;20134;-68
2022/04/16 08:18:51;;;;;;;9.82;5.70;;;8.70;99.90;;;;;;5093954;28;20215;-72
2022/04/16 08:21:37;;;;;;;9.63;5.23;;;10.80;99.90;;;;;;5094300;28;20008;-72
2022/04/16 08:27:12;;;;;;;14.95;8.60;;;13.00;96.80;;;;;;5095180;28;20453;-69
2022/04/16 08:29:58;;;;;;;7.40;4.13;;;13.70;91.50;;;;;;5095205;28;20035;-72
2022/04/16 08:32:45;;;;;;;5.85;3.50;;;13.40;79.90;;;;;;5099240;28;20048;-65
2022/04/16 08:35:31;;;;;;;8.82;4.30;;;13.50;77.50;;;;;;5074225;28;20229;-74
2022/04/16 08:38:17;;;;;;;5.88;3.30;;;13.70;75.00;;;;;;5086327;28;20670;-69
2022/04/16 08:41:04;;;;;;;6.45;3.95;;;13.10;77.40;;;;;;5093167;28;20668;-68
2022/04/16 08:43:51;;;;;;;;;;;11.10;79.00;;;;;;5093595;28;20016;-67
2022/04/16 08:46:37;;;;;;;5.43;3.50;;;10.30;89.10;;;;;;5095315;28;19907;-69
2022/04/16 08:49:25;;;;;;;6.67;4.00;;;9.90;89.10;;;;;;5092769;28;20756;-67
2022/04/16 08:52:11;;;;;;;5.18;2.70;;;9.30;88.50;;;;;;5095968;27;20059;-69
2022/04/16 08:54:58;;;;;;;6.05;3.17;;;8.80;84.50;;;;;;5093519;28;20031;-69
2022/04/16 08:57:44;;;;;;;5.00;2.78;;;8.60;85.00;;;;;;5094142;27;20058;-69
2022/04/16 09:00:31;;;;;;;4.80;2.00;;;8.40;84.60;;;;;;5083790;27;20059;-69
2022/04/16 09:03:17;;;;;;;4.25;2.22;;;8.40;87.70;;;;;;5083098;28;20434;-67
2022/04/16 09:06:04;;;;;;;4.57;2.00;;;8.40;85.90;;;;;;5083029;28;20858;-68
2022/04/16 09:08:50;;;;;;;3.47;1.80;;;8.40;87.50;;;;;;5094746;28;20278;-66
2022/04/16 09:11:36;;;;;;;4.80;2.15;;;8.30;83.70;;;;;;5094127;28;20380;-70
2022/04/16 09:14:46;;;;;;;7.77;1.93;;;8.30;83.40;;;;;;5087560;28;20051;-66
2022/04/16 09:17:32;;;;;;;4.93;1.50;;;8.30;81.30;;;;;;5089292;28;20027;-67
2022/04/16 09:20:18;;;;;;;3.60;1.40;;;8.20;80.00;;;;;;5097613;27;20031;-71
2022/04/16 09:22:49;;;;;;;3.17;1.45;;;8.30;80.30;;;;;;5093538;28;20039;-70
2022/04/16 09:25:16;;;;;;;1.80;0.95;;;8.30;78.50;;;;;;5100106;28;20112;-69
2022/04/16 09:27:47;;;;;;;2.33;1.27;;;8.40;78.40;;;;;;5092780;28;20043;-67
2022/04/16 09:30:27;;;;;;;1.70;1.10;;;8.30;74.20;;;;;;5108112;27;20043;-69
2022/04/16 09:32:55;;;;;;;1.55;0.70;;;8.30;69.00;;;;;;5101435;27;20065;-70
2022/04/16 09:35:35;;;;;;;3.80;0.80;;;8.20;68.30;;;;;;5090239;28;20043;-71
2022/04/16 09:38:03;;;;;;;1.90;0.68;;;8.30;63.60;;;;;;5100138;27;20046;-69
2022/04/16 09:40:33;;;;;;;1.10;0.68;;;8.50;72.30;;;;;;5102124;28;20115;-69
2022/04/16 09:43:02;;;;;;;2.63;1.13;;;8.60;73.00;;;;;;5095905;28;20039;-68
2022/04/16 09:45:31;;;;;;;1.98;0.70;;;8.70;70.00;;;;;;5096969;28;20055;-71
2022/04/16 09:47:58;;;;;;;1.30;0.68;;;8.50;69.80;;;;;;5100916;28;20043;-70
2022/04/16 09:50:26;;;;;;;3.00;0.60;;;8.50;67.40;;;;;;5102588;28;20492;-70
2022/04/16 09:52:55;;;;;;;2.78;0.70;;;8.50;67.10;;;;;;5104042;28;20100;-71
2022/04/16 09:55:24;;;;;;;2.38;0.70;;;8.70;68.80;;;;;;5111726;27;20066;-68
2022/04/16 09:58:11;;;;;;;1.70;0.70;;;8.80;67.30;;;;;;5104202;28;20081;-69
2022/04/16 10:00:38;;;;;;;1.30;0.70;;;8.80;65.90;;;;;;5102875;27;20055;-71
2022/04/16 10:03:07;;;;;;;1.23;0.82;;;8.90;65.00;;;;;;5102602;28;20043;-71
2022/04/16 10:05:34;;;;;;;2.65;1.13;;;9.00;65.50;;;;;;5102487;28;20403;-71
2022/04/16 10:07:59;;;;;;;0.80;0.60;;;9.10;63.30;;;;;;5103565;28;20036;-69
2022/04/16 10:10:30;;;;;;;;;;;9.20;64.60;;;;;;5102667;28;20040;-69
2022/04/16 10:13:03;;;;;;;2.25;0.77;;;9.30;63.70;;;;;;5102537;28;19922;-68
2022/04/16 10:15:50;;;;;;;3.03;0.70;;;9.20;64.00;;;;;;5097214;27;20039;-66
2022/04/16 10:18:16;;;;;;;1.10;0.68;;;9.20;62.60;;;;;;5095674;28;20028;-66
2022/04/16 10:20:51;;;;;;;;;;;9.60;63.30;;;;;;5101810;28;20652;-66
2022/04/16 10:23:39;;;;;;;1.15;0.68;;;9.50;63.70;;;;;;5094208;28;19922;-70
2022/04/16 10:26:11;;;;;;;1.80;0.57;;;9.30;58.30;;;;;;5103362;28;20058;-68
2022/04/16 10:28:52;;;;;;;1.17;0.55;;;9.20;60.40;;;;;;5101019;28;20046;-65
2022/04/16 10:31:27;;;;;;;1.13;0.90;;;9.20;62.20;;;;;;5096770;27;20035;-65
2022/04/16 10:34:05;;;;;;;1.25;0.70;;;9.20;62.80;;;;;;5101524;28;20036;-67
2022/04/16 10:36:36;;;;;;;3.78;0.98;;;9.10;56.40;;;;;;5102954;28;20541;-66
2022/04/16 10:39:17;;;;;;;1.38;0.80;;;9.40;58.70;;;;;;5103108;28;20032;-65
2022/04/16 10:42:12;;;;;;;3.70;1.40;;;9.50;59.30;;;;;;5101822;28;20082;-65
2022/04/16 10:44:47;;;;;;;1.95;0.70;;;9.50;59.60;;;;;;5088388;28;20863;-69
2022/04/16 10:47:19;;;;;;;1.55;0.70;;;9.40;58.70;;;;;;5103922;28;20047;-67
2022/04/16 10:49:45;;;;;;;4.93;2.13;;;9.50;61.60;;;;;;5103640;28;20036;-67
2022/04/16 10:52:20;;;;;;;;;;;9.50;59.60;;;;;;5102652;28;20462;-66
2022/04/16 10:54:47;;;;;;;1.77;0.80;;;9.40;58.70;;;;;;5103156;28;19920;-67
2022/04/16 10:57:20;;;;;;;2.65;1.00;;;9.80;66.30;;;;;;5101646;28;20047;-66
2022/04/16 10:59:46;;;;;;;6.55;2.00;;;9.60;61.70;;;;;;5103441;28;20066;-67
2022/04/16 11:02:34;;;;;;;5.07;1.73;;;9.60;64.20;;;;;;5100456;27;20039;-67
2022/04/16 11:05:00;;;;;;;2.08;0.88;;;9.60;58.50;;;;;;5101821;28;20043;-68
2022/04/16 11:07:28;;;;;;;2.67;1.05;;;9.60;60.10;;;;;;5102209;28;20074;-67
2022/04/16 11:09:54;;;;;;;2.75;1.10;;;9.70;60.50;;;;;;5101090;28;20655;-69
2022/04/16 11:12:21;;;;;;;2.45;1.42;;;9.80;63.40;;;;;;5102779;28;20043;-68
2022/04/16 11:14:50;;;;;;;1.10;0.73;;;9.90;63.30;;;;;;5102265;28;20177;-67
2022/04/16 11:17:16;;;;;;;2.00;1.23;;;9.80;59.60;;;;;;5101050;28;20063;-68
2022/04/16 11:19:45;;;;;;;;;;;9.70;58.90;;;;;;5103242;28;20514;-74
2022/04/16 11:22:11;;;;;;;2.50;1.40;;;9.70;60.90;;;;;;5101762;28;20004;-67
2022/04/16 11:24:37;;;;;;;;;;;9.70;59.60;;;;;;5103520;28;20032;-68
2022/04/16 11:35:23;;;;;;;2.83;1.60;;;9.90;65.10;;;;;;5100296;28;20735;-67
2022/04/16 11:37:54;;;;;;;8.48;1.10;;;9.90;63.10;;;;;;5097818;28;20040;-71
2022/04/16 11:40:19;;;;;;;2.63;1.42;;;10.00;67.30;;;;;;5099154;28;20122;-68
2022/04/16 11:42:45;;;;;;;;;;;10.00;66.00;;;;;;5100179;28;20131;-70
2022/04/16 11:45:11;;;;;;;2.58;1.15;;;10.00;61.70;;;;;;5100870;28;19916;-71
2022/04/16 11:47:37;;;;;;;;;;;10.20;65.40;;;;;;5101410;28;20048;-69
2022/04/16 11:50:06;;;;;;;1.42;0.73;;;10.10;64.60;;;;;;5100614;28;19989;-71
2022/04/16 11:52:33;;;;;;;3.50;0.90;;;10.00;62.50;;;;;;5101468;28;20093;-69
2022/04/16 11:55:00;;;;;;;3.92;1.02;;;10.00;58.90;;;;;;5101339;28;20044;-68
2022/04/16 11:57:26;;;;;;;9.23;1.55;;;10.00;60.20;;;;;;5102194;28;20055;-70
2022/04/16 12:00:04;;;;;;;;;;;10.00;59.10;;;;;;5102365;28;20044;-69
2022/04/16 12:02:31;;;;;;;3.13;0.80;;;10.20;69.10;;;;;;5100885;27;19989;-70
2022/04/16 12:05:07;;;;;;;2.58;1.15;;;10.30;66.40;;;;;;5101187;28;20036;-69
2022/04/16 12:07:33;;;;;;;1.58;0.93;;;10.30;64.00;;;;;;5100356;28;20043;-71
2022/04/16 12:10:01;;;;;;;;;;;10.20;62.80;;;;;;5102939;28;20050;-69
2022/04/16 12:12:27;;;;;;;2.15;0.90;;;10.20;62.90;;;;;;5102011;28;19939;-69
2022/04/16 12:14:52;;;;;;;;;;;10.30;62.20;;;;;;5107657;28;20043;-69
2022/04/16 12:17:26;;;;;;;1.17;0.70;;;10.30;61.70;;;;;;5106561;28;19922;-69
2022/04/16 12:19:57;;;;;;;1.10;0.95;;;10.30;64.40;;;;;;5087052;28;20067;-70
2022/04/16 12:22:22;;;;;;;2.38;1.00;;;10.50;64.70;;;;;;5105522;28;20044;-70
2022/04/16 12:24:48;;;;;;;;;;;10.80;64.00;;;;;;5106169;28;20040;-69
2022/04/16 12:27:27;;;;;;;4.15;1.48;;;10.70;63.50;;;;;;5104752;28;19977;-70
2022/04/16 12:29:57;;;;;;;0.90;0.80;;;10.70;60.30;;;;;;5114384;27;20058;-70
2022/04/16 12:32:26;;;;;;;3.65;1.00;;;10.60;60.80;;;;;;5103858;28;20043;-69
2022/04/16 12:34:52;;;;;;;1.58;0.77;;;10.70;65.90;;;;;;5105749;28;20043;-69
2022/04/16 12:37:18;;;;;;;;;;;10.50;60.80;;;;;;5105226;28;20122;-70
2022/04/16 12:39:44;;;;;;;2.28;0.82;;;10.40;62.50;;;;;;5087199;28;20022;-70
2022/04/16 12:42:09;;;;;;;;;;;10.40;61.80;;;;;;5105263;28;20697;-70
2022/04/16 12:44:35;;;;;;;2.50;1.10;;;10.50;62.50;;;;;;5105106;28;19916;-70
2022/04/16 12:47:00;;;;;;;;;;;10.30;58.60;;;;;;5105066;28;20113;-69
2022/04/16 12:49:26;;;;;;;7.47;1.23;;;10.30;61.40;;;;;;5086352;28;19923;-69
2022/04/16 12:51:52;;;;;;;;;;;10.70;63.30;;;;;;5105841;28;20040;-67
2022/04/16 12:54:17;;;;;;;1.42;0.90;;;11.00;61.70;;;;;;5105455;28;19976;-68
2022/04/16 12:56:43;;;;;;;4.35;0.80;;;11.20;62.90;;;;;;5105260;28;20514;-68
2022/04/16 12:59:09;;;;;;;;;;;11.30;57.80;;;;;;5105200;28;20040;-68
2022/04/16 13:01:35;;;;;;;2.83;1.00;;;11.10;58.90;;;;;;5102974;27;20026;-68
2022/04/16 13:04:00;;;;;;;;;;;10.90;59.20;;;;;;5106508;28;20470;-68
2022/04/16 13:06:26;;;;;;;2.35;1.30;;;10.90;63.20;;;;;;5105242;28;19916;-68
2022/04/16 13:08:56;;;;;;;3.10;1.40;;;10.70;58.40;;;;;;5106126;28;20039;-68
2022/04/16 13:11:22;;;;;;;2.60;0.80;;;10.80;60.00;;;;;;5106807;28;20085;-68
2022/04/16 13:13:48;;;;;;;;;;;10.80;61.40;;;;;;5107125;28;20039;-68
2022/04/16 13:16:13;;;;;;;2.05;1.00;;;11.00;60.80;;;;;;5106549;28;19915;-68
2022/04/16 13:18:40;;;;;;;;;;;10.90;59.60;;;;;;5107393;28;20047;-68
2022/04/16 13:21:06;;;;;;;1.58;1.15;;;10.90;58.40;;;;;;5106214;28;19997;-68
2022/04/16 13:23:33;;;;;;;1.77;0.90;;;10.90;63.50;;;;;;5105990;28;20039;-68
2022/04/16 13:25:58;;;;;;;2.63;1.25;;;11.00;60.50;;;;;;5088031;28;20035;-68
2022/04/16 13:28:26;;;;;;;;;;;11.00;61.50;;;;;;5107233;28;20372;-68
2022/04/16 13:30:55;;;;;;;4.63;0.90;;;11.10;59.00;;;;;;5104984;27;20354;-68
2022/04/16 13:33:22;;;;;;;9.20;1.17;;;11.20;61.70;;;;;;5105580;28;21075;-68
2022/04/16 13:35:48;;;;;;;1.02;0.60;;;11.40;59.60;;;;;;5106093;28;20101;-68
2022/04/16 13:38:14;;;;;;;1.02;0.73;;;11.50;58.20;;;;;;5105714;28;20331;-68
2022/04/16 13:43:24;;;;;;;1.75;0.93;;;11.50;58.50;;;;;;5105321;28;19916;-68
2022/04/16 13:45:49;;;;;;;;;;;11.50;56.40;;;;;;5106354;28;20042;-68
2022/04/16 13:48:15;;;;;;;2.60;1.05;;;11.40;56.20;;;;;;5105184;28;19919;-68
2022/04/16 13:50:40;;;;;;;;;;;11.50;57.20;;;;;;5105431;28;20119;-68
2022/04/16 13:53:06;;;;;;;1.65;0.82;;;11.40;57.30;;;;;;5105264;28;19922;-68
2022/04/16 13:55:32;;;;;;;;;;;11.30;59.00;;;;;;5105629;28;20043;-68
2022/04/16 13:57:57;;;;;;;1.35;0.70;;;11.20;58.30;;;;;;5105875;28;19916;-69
2022/04/16 14:00:23;;;;;;;2.15;1.10;;;11.20;57.60;;;;;;5103894;27;20044;-68
2022/04/16 14:02:49;;;;;;;;;;;11.10;56.50;;;;;;5106100;28;20465;-68
2022/04/16 14:07:59;;;;;;;4.22;1.30;;;11.10;58.40;;;;;;5105695;28;20071;-68
2022/04/16 14:10:27;;;;;;;;;;;11.10;59.30;;;;;;5106069;28;20658;-68
2022/04/16 14:12:53;;;;;;;5.43;1.85;;;11.20;60.10;;;;;;5105641;28;19916;-68
2022/04/16 14:15:19;;;;;;;3.22;0.85;;;11.30;57.10;;;;;;5104401;28;20558;-69
2022/04/16 14:17:44;;;;;;;;;;;11.30;54.90;;;;;;5104145;28;20071;-69
2022/04/16 14:20:10;;;;;;;1.13;0.63;;;11.50;62.10;;;;;;5103479;28;19962;-69
2022/04/16 14:22:36;;;;;;;;;;;11.50;59.30;;;;;;5103630;28;20040;-68
2022/04/16 14:25:02;;;;;;;1.85;0.80;;;11.30;58.00;;;;;;5103721;28;19915;-70
2022/04/16 14:27:28;;;;;;;;;;;11.30;57.60;;;;;;5102864;28;20599;-70
2022/04/16 14:29:54;;;;;;;1.13;0.85;;;11.20;57.90;;;;;;5103151;28;20010;-69
2022/04/16 14:32:19;;;;;;;2.42;1.15;;;11.20;58.00;;;;;;5101906;27;20036;-69
2022/04/16 14:34:45;;;;;;;;;;;11.00;56.00;;;;;;5102293;28;20052;-70